createdAt,value
2017-12-10T00:00:41.778Z,83.98
2017-12-10T00:01:44.250Z,84.10
2017-12-10T00:02:46.695Z,84.14
2017-12-10T00:03:49.158Z,84.08
2017-12-10T00:04:51.606Z,83.85
2017-12-10T00:05:54.054Z,83.88
2017-12-10T00:06:56.523Z,84.16
2017-12-10T00:07:58.974Z,84.04
2017-12-10T00:09:01.418Z,84.06
2017-12-10T00:10:03.866Z,83.87
2017-12-10T00:11:06.315Z,84.04
2017-12-10T00:12:08.778Z,84.28
2017-12-10T00:13:11.300Z,84.19
2017-12-10T00:14:13.751Z,84.18
2017-12-10T00:15:16.202Z,83.95
2017-12-10T00:16:18.646Z,84.15
2017-12-10T00:17:21.126Z,84.00
2017-12-10T00:18:23.574Z,83.78
2017-12-10T00:19:26.018Z,83.86
2017-12-10T00:20:28.509Z,83.60
2017-12-10T00:21:30.968Z,83.38
2017-12-10T00:22:33.435Z,83.41
2017-12-10T00:23:35.886Z,83.74
2017-12-10T00:24:38.342Z,83.97
2017-12-10T00:25:40.802Z,83.66
2017-12-10T00:26:43.270Z,83.74
2017-12-10T00:27:45.734Z,83.48
2017-12-10T00:28:48.182Z,82.96
2017-12-10T00:29:50.732Z,82.82
2017-12-10T00:30:53.174Z,82.92
2017-12-10T00:31:55.619Z,83.20
2017-12-10T00:32:58.083Z,83.15
2017-12-10T00:34:00.525Z,82.82
2017-12-10T00:35:02.970Z,82.86
2017-12-10T00:36:05.418Z,82.56
2017-12-10T00:37:07.867Z,82.64
2017-12-10T00:38:10.351Z,82.73
2017-12-10T00:39:12.802Z,82.32
2017-12-10T00:40:15.278Z,82.50
2017-12-10T00:41:17.731Z,82.42
2017-12-10T00:42:20.178Z,82.76
2017-12-10T00:43:22.648Z,82.65
2017-12-10T00:44:25.102Z,82.62
2017-12-10T00:45:27.555Z,82.35
2017-12-10T00:46:30.035Z,82.39
2017-12-10T00:47:32.487Z,82.40
2017-12-10T00:48:34.958Z,82.69
2017-12-10T00:49:37.406Z,82.49
2017-12-10T00:50:39.872Z,82.47
2017-12-10T00:51:42.313Z,82.35
2017-12-10T00:52:44.755Z,82.39
2017-12-10T00:53:47.219Z,82.18
2017-12-10T00:54:49.668Z,81.68
2017-12-10T00:55:52.116Z,81.52
2017-12-10T00:56:54.562Z,81.40
2017-12-10T00:57:57.006Z,81.01
2017-12-10T00:58:59.467Z,81.47
2017-12-10T01:00:01.917Z,80.97
2017-12-10T01:01:04.371Z,80.94
2017-12-10T01:02:06.825Z,81.15
2017-12-10T01:03:09.277Z,81.12
2017-12-10T01:04:11.743Z,80.68
2017-12-10T01:05:14.187Z,81.11
2017-12-10T01:06:19.306Z,80.97
2017-12-10T01:07:21.768Z,80.89
2017-12-10T01:08:24.223Z,81.03
2017-12-10T01:09:26.720Z,81.13
2017-12-10T01:10:29.162Z,81.16
2017-12-10T01:11:31.588Z,81.17
2017-12-10T01:12:34.034Z,81.40
2017-12-10T01:13:36.501Z,81.58
2017-12-10T01:14:38.967Z,81.33
2017-12-10T01:15:41.535Z,81.07
2017-12-10T01:16:43.997Z,80.51
2017-12-10T01:17:46.460Z,80.35
2017-12-10T01:18:48.928Z,80.47
2017-12-10T01:19:51.390Z,80.58
2017-12-10T01:20:53.921Z,80.72
2017-12-10T01:21:56.393Z,80.78
2017-12-10T01:22:58.842Z,80.82
2017-12-10T01:24:01.319Z,80.80
2017-12-10T01:25:03.796Z,80.79
2017-12-10T01:26:06.242Z,81.12
2017-12-10T01:27:08.694Z,81.09
2017-12-10T01:28:11.138Z,80.96
2017-12-10T01:29:13.597Z,80.89
2017-12-10T01:30:16.070Z,80.73
2017-12-10T01:31:18.529Z,80.93
2017-12-10T01:32:20.989Z,81.11
2017-12-10T01:33:23.434Z,80.85
2017-12-10T01:34:25.882Z,81.09
2017-12-10T01:35:28.368Z,81.08
2017-12-10T01:36:30.832Z,80.35
2017-12-10T01:37:33.277Z,80.60
2017-12-10T01:38:35.722Z,80.71
2017-12-10T01:39:38.170Z,80.66
2017-12-10T01:40:40.656Z,80.86
2017-12-10T01:41:43.129Z,80.64
2017-12-10T01:42:45.583Z,80.65
2017-12-10T01:43:48.044Z,80.61
2017-12-10T01:44:50.529Z,80.80
2017-12-10T01:45:53.008Z,80.58
2017-12-10T01:46:55.468Z,80.30
2017-12-10T01:47:57.929Z,79.98
2017-12-10T01:49:00.387Z,80.32
2017-12-10T01:50:02.829Z,80.25
2017-12-10T01:51:05.309Z,79.66
2017-12-10T01:52:07.759Z,79.53
2017-12-10T01:53:10.237Z,79.79
2017-12-10T01:54:12.737Z,79.89
2017-12-10T01:55:15.181Z,79.82
2017-12-10T01:56:17.674Z,79.22
2017-12-10T01:57:20.132Z,79.35
2017-12-10T01:58:22.587Z,79.69
2017-12-10T01:59:25.056Z,80.01
2017-12-10T02:00:27.498Z,80.01
2017-12-10T02:01:29.976Z,79.97
2017-12-10T02:02:32.426Z,79.81
2017-12-10T02:03:34.872Z,80.11
2017-12-10T02:04:37.314Z,80.35
2017-12-10T02:05:39.777Z,80.07
2017-12-10T02:06:42.271Z,80.63
2017-12-10T02:07:44.736Z,80.57
2017-12-10T02:08:47.182Z,80.90
2017-12-10T02:09:49.668Z,80.77
2017-12-10T02:10:52.128Z,81.02
2017-12-10T02:11:54.657Z,81.10
2017-12-10T02:12:57.120Z,81.49
2017-12-10T02:13:59.567Z,81.32
2017-12-10T02:15:02.012Z,81.52
2017-12-10T02:16:04.476Z,81.90
2017-12-10T02:17:06.952Z,81.92
2017-12-10T02:18:09.403Z,81.95
2017-12-10T02:19:11.864Z,82.15
2017-12-10T02:20:14.306Z,82.17
2017-12-10T02:21:16.766Z,82.37
2017-12-10T02:22:19.251Z,82.29
2017-12-10T02:23:21.708Z,82.19
2017-12-10T02:24:24.158Z,82.44
2017-12-10T02:25:26.606Z,82.11
2017-12-10T02:26:29.055Z,82.40
2017-12-10T02:27:31.559Z,82.34
2017-12-10T02:28:34.187Z,82.39
2017-12-10T02:29:36.639Z,82.30
2017-12-10T02:30:39.082Z,82.04
2017-12-10T02:31:41.535Z,82.05
2017-12-10T02:32:44.002Z,82.00
2017-12-10T02:33:46.446Z,82.07
2017-12-10T02:34:48.894Z,82.15
2017-12-10T02:35:51.357Z,82.28
2017-12-10T02:36:53.812Z,82.82
2017-12-10T02:37:56.297Z,83.02
2017-12-10T02:38:58.743Z,83.09
2017-12-10T02:41:02.961Z,83.29
2017-12-10T02:42:05.412Z,83.57
2017-12-10T02:43:07.945Z,83.07
2017-12-10T02:44:10.439Z,83.30
2017-12-10T02:45:12.910Z,82.83
2017-12-10T02:46:15.375Z,83.21
2017-12-10T02:47:17.830Z,83.06
2017-12-10T02:48:20.299Z,83.21
2017-12-10T02:49:22.747Z,83.37
2017-12-10T02:50:25.198Z,83.48
2017-12-10T02:51:27.646Z,83.64
2017-12-10T02:52:30.111Z,83.56
2017-12-10T02:53:32.583Z,83.64
2017-12-10T02:54:35.045Z,83.48
2017-12-10T02:55:37.509Z,83.41
2017-12-10T02:56:39.972Z,83.03
2017-12-10T02:57:42.426Z,83.15
2017-12-10T02:58:44.889Z,83.20
2017-12-10T02:59:47.334Z,82.89
2017-12-10T03:00:49.774Z,82.96
2017-12-10T03:01:52.223Z,83.16
2017-12-10T03:02:54.689Z,83.06
2017-12-10T03:03:57.159Z,82.96
2017-12-10T03:04:59.641Z,82.94
2017-12-10T03:06:02.086Z,82.73
2017-12-10T03:07:04.527Z,83.23
2017-12-10T03:08:06.988Z,83.05
2017-12-10T03:09:09.452Z,83.23
2017-12-10T03:10:11.895Z,83.37
2017-12-10T03:11:14.342Z,83.33
2017-12-10T03:12:16.799Z,83.40
2017-12-10T03:13:19.251Z,83.32
2017-12-10T03:14:21.732Z,82.99
2017-12-10T03:15:24.193Z,82.86
2017-12-10T03:16:26.644Z,82.96
2017-12-10T03:17:29.100Z,82.81
2017-12-10T03:18:31.561Z,82.71
2017-12-10T03:19:34.026Z,82.36
2017-12-10T03:20:36.489Z,82.20
2017-12-10T03:21:38.997Z,81.88
2017-12-10T03:22:41.443Z,81.56
2017-12-10T03:23:43.908Z,81.65
2017-12-10T03:24:46.387Z,81.63
2017-12-10T03:25:48.835Z,81.80
2017-12-10T03:26:51.309Z,81.49
2017-12-10T03:27:54.589Z,81.40
2017-12-10T03:28:57.042Z,81.50
2017-12-10T03:29:59.506Z,81.37
2017-12-10T03:31:01.969Z,81.36
2017-12-10T03:32:04.444Z,81.33
2017-12-10T03:33:06.887Z,80.80
2017-12-10T03:34:09.334Z,80.86
2017-12-10T03:35:11.838Z,81.07
2017-12-10T03:36:14.282Z,81.18
2017-12-10T03:37:16.749Z,81.42
2017-12-10T03:38:19.191Z,81.02
2017-12-10T03:39:21.652Z,80.78
2017-12-10T03:40:24.138Z,80.73
2017-12-10T03:41:26.582Z,80.79
2017-12-10T03:42:29.049Z,80.85
2017-12-10T03:43:31.521Z,80.96
2017-12-10T03:44:33.988Z,80.74
2017-12-10T03:45:36.472Z,80.47
2017-12-10T03:46:38.919Z,80.22
2017-12-10T03:47:41.380Z,79.98
2017-12-10T03:48:43.822Z,80.34
2017-12-10T03:49:46.274Z,80.34
2017-12-10T03:50:48.738Z,80.39
2017-12-10T03:51:51.182Z,80.38
2017-12-10T03:52:53.645Z,80.03
2017-12-10T03:53:56.098Z,80.21
2017-12-10T03:54:58.543Z,80.71
2017-12-10T03:56:01.012Z,80.53
2017-12-10T03:57:03.467Z,80.57
2017-12-10T03:58:05.910Z,80.52
2017-12-10T03:59:08.381Z,80.48
2017-12-10T04:00:10.827Z,80.95
2017-12-10T04:01:13.308Z,80.88
2017-12-10T04:02:15.758Z,81.08
2017-12-10T04:03:18.224Z,80.80
2017-12-10T04:04:20.686Z,80.79
2017-12-10T04:05:23.162Z,80.55
2017-12-10T04:06:25.644Z,80.68
2017-12-10T04:07:28.105Z,80.86
2017-12-10T04:08:30.567Z,80.71
2017-12-10T04:09:33.010Z,80.57
2017-12-10T04:10:35.473Z,80.27
2017-12-10T04:11:38.073Z,80.90
2017-12-10T04:12:40.474Z,80.65
2017-12-10T04:13:42.925Z,80.34
2017-12-10T04:14:45.400Z,80.61
2017-12-10T04:15:47.869Z,80.43
2017-12-10T04:16:50.400Z,80.19
2017-12-10T04:17:52.873Z,80.21
2017-12-10T04:18:55.344Z,79.93
2017-12-10T04:19:57.799Z,80.07
2017-12-10T04:21:00.242Z,80.18
2017-12-10T04:22:02.724Z,79.79
2017-12-10T04:23:05.185Z,79.88
2017-12-10T04:24:07.630Z,80.00
2017-12-10T04:25:10.088Z,79.96
2017-12-10T04:26:12.548Z,80.06
2017-12-10T04:27:15.014Z,79.74
2017-12-10T04:28:17.476Z,80.11
2017-12-10T04:29:19.917Z,79.69
2017-12-10T04:30:22.380Z,80.16
2017-12-10T04:31:24.843Z,79.79
2017-12-10T04:32:27.316Z,79.83
2017-12-10T04:33:29.795Z,79.77
2017-12-10T04:34:32.282Z,79.75
2017-12-10T04:35:34.757Z,79.90
2017-12-10T04:36:37.201Z,80.10
2017-12-10T04:37:39.666Z,79.95
2017-12-10T04:38:42.153Z,79.91
2017-12-10T04:39:44.625Z,79.72
2017-12-10T04:40:47.128Z,79.76
2017-12-10T04:41:49.592Z,79.80
2017-12-10T04:42:52.068Z,79.92
2017-12-10T04:43:54.528Z,79.99
2017-12-10T04:44:57.012Z,80.11
2017-12-10T04:45:59.480Z,80.30
2017-12-10T04:47:01.926Z,80.07
2017-12-10T04:48:04.386Z,80.19
2017-12-10T04:49:06.859Z,80.25
2017-12-10T04:50:09.306Z,80.21
2017-12-10T04:51:11.777Z,80.24
2017-12-10T04:52:14.219Z,80.22
2017-12-10T04:53:16.701Z,80.43
2017-12-10T04:54:19.168Z,80.38
2017-12-10T04:55:21.628Z,80.01
2017-12-10T04:56:24.099Z,79.89
2017-12-10T04:57:26.567Z,80.04
2017-12-10T04:58:29.030Z,79.75
2017-12-10T04:59:31.474Z,79.81
2017-12-10T05:00:33.936Z,79.49
2017-12-10T05:01:36.388Z,79.84
2017-12-10T05:02:38.838Z,79.73
2017-12-10T05:03:41.320Z,79.85
2017-12-10T05:04:43.794Z,79.77
2017-12-10T05:05:46.300Z,79.53
2017-12-10T05:06:48.759Z,79.90
2017-12-10T05:07:51.221Z,79.88
2017-12-10T05:08:53.754Z,80.02
2017-12-10T05:09:56.253Z,79.52
2017-12-10T05:10:58.733Z,79.72
2017-12-10T05:12:01.202Z,80.10
2017-12-10T05:13:03.664Z,80.02
2017-12-10T05:14:06.130Z,80.11
2017-12-10T05:15:08.574Z,80.15
2017-12-10T05:16:11.018Z,80.15
2017-12-10T05:17:13.462Z,80.21
2017-12-10T05:18:15.910Z,80.06
2017-12-10T05:19:18.384Z,80.51
2017-12-10T05:20:20.849Z,80.49
2017-12-10T05:21:23.298Z,80.93
2017-12-10T05:22:25.764Z,81.14
2017-12-10T05:23:28.206Z,81.46
2017-12-10T05:24:30.707Z,81.57
2017-12-10T05:25:33.208Z,81.77
2017-12-10T05:26:35.669Z,82.04
2017-12-10T05:27:38.114Z,82.22
2017-12-10T05:28:40.573Z,81.96
2017-12-10T05:29:43.038Z,81.88
2017-12-10T05:30:45.817Z,81.68
2017-12-10T05:31:48.281Z,82.03
2017-12-10T05:32:50.749Z,82.00
2017-12-10T05:33:53.217Z,81.84
2017-12-10T05:34:55.741Z,82.17
2017-12-10T05:35:58.200Z,82.06
2017-12-10T05:37:00.643Z,82.30
2017-12-10T05:38:03.085Z,81.77
2017-12-10T05:39:05.530Z,82.09
2017-12-10T05:40:07.994Z,82.13
2017-12-10T05:41:10.480Z,82.26
2017-12-10T05:42:12.941Z,82.21
2017-12-10T05:43:15.386Z,82.35
2017-12-10T05:44:17.860Z,82.30
2017-12-10T05:45:20.349Z,82.14
2017-12-10T05:46:22.794Z,82.45
2017-12-10T05:47:25.272Z,82.49
2017-12-10T05:48:27.727Z,82.32
2017-12-10T05:49:30.188Z,82.37
2017-12-10T05:50:32.654Z,82.38
2017-12-10T05:51:35.112Z,82.18
2017-12-10T05:52:37.572Z,82.13
2017-12-10T05:53:40.022Z,82.26
2017-12-10T05:54:42.467Z,82.46
2017-12-10T05:55:44.950Z,82.56
2017-12-10T05:56:47.416Z,82.33
2017-12-10T05:57:49.880Z,82.55
2017-12-10T05:58:52.321Z,82.44
2017-12-10T05:59:54.778Z,82.44
2017-12-10T06:00:57.260Z,82.43
2017-12-10T06:01:59.730Z,82.04
2017-12-10T06:03:02.196Z,81.97
2017-12-10T06:04:04.654Z,82.21
2017-12-10T06:05:07.118Z,82.00
2017-12-10T06:06:09.606Z,81.96
2017-12-10T06:07:12.055Z,81.93
2017-12-10T06:08:14.516Z,82.22
2017-12-10T06:09:16.958Z,82.49
2017-12-10T06:10:19.411Z,81.95
2017-12-10T06:11:21.878Z,81.76
2017-12-10T06:12:24.330Z,81.94
2017-12-10T06:13:26.794Z,82.20
2017-12-10T06:14:29.250Z,81.77
2017-12-10T06:15:31.712Z,81.55
2017-12-10T06:16:34.174Z,81.65
2017-12-10T06:17:36.636Z,81.85
2017-12-10T06:18:39.092Z,82.01
2017-12-10T06:19:41.557Z,82.28
2017-12-10T06:20:44.034Z,82.15
2017-12-10T06:21:46.532Z,82.28
2017-12-10T06:22:48.974Z,82.52
2017-12-10T06:23:51.434Z,82.61
2017-12-10T06:24:53.900Z,82.26
2017-12-10T06:25:56.342Z,82.50
2017-12-10T06:26:58.816Z,82.33
2017-12-10T06:28:01.281Z,82.24
2017-12-10T06:29:03.730Z,82.21
2017-12-10T06:30:06.215Z,82.48
2017-12-10T06:31:08.688Z,82.22
2017-12-10T06:32:11.154Z,82.41
2017-12-10T06:33:13.603Z,82.78
2017-12-10T06:34:16.065Z,82.65
2017-12-10T06:35:18.515Z,82.47
2017-12-10T06:36:20.972Z,82.63
2017-12-10T06:37:23.458Z,82.31
2017-12-10T06:38:25.920Z,82.32
2017-12-10T06:39:28.363Z,82.29
2017-12-10T06:40:30.815Z,82.27
2017-12-10T06:41:33.271Z,82.43
2017-12-10T06:42:35.758Z,82.53
2017-12-10T06:43:38.219Z,82.61
2017-12-10T06:44:40.664Z,82.46
2017-12-10T06:45:43.105Z,82.83
2017-12-10T06:46:45.562Z,82.72
2017-12-10T06:47:48.022Z,82.81
2017-12-10T06:48:50.480Z,82.90
2017-12-10T06:49:52.943Z,82.84
2017-12-10T06:50:55.409Z,83.07
2017-12-10T06:51:57.858Z,83.09
2017-12-10T06:53:00.344Z,83.10
2017-12-10T06:54:02.789Z,83.13
2017-12-10T06:55:05.234Z,82.94
2017-12-10T06:56:07.693Z,83.06
2017-12-10T06:57:10.178Z,83.03
2017-12-10T06:58:12.650Z,83.04
2017-12-10T06:59:15.099Z,83.29
2017-12-10T07:00:17.547Z,83.19
2017-12-10T07:01:19.998Z,83.03
2017-12-10T07:02:22.503Z,82.86
2017-12-10T07:03:25.000Z,83.00
2017-12-10T07:04:27.469Z,83.26
2017-12-10T07:05:29.936Z,83.41
2017-12-10T07:06:32.378Z,83.38
2017-12-10T07:07:34.844Z,83.50
2017-12-10T07:08:37.318Z,83.50
2017-12-10T07:09:39.776Z,83.30
2017-12-10T07:10:42.239Z,83.43
2017-12-10T07:11:44.690Z,83.55
2017-12-10T07:12:47.134Z,83.30
2017-12-10T07:13:49.614Z,83.32
2017-12-10T07:14:52.062Z,83.15
2017-12-10T07:15:54.518Z,83.14
2017-12-10T07:16:56.980Z,83.10
2017-12-10T07:17:59.453Z,82.90
2017-12-10T07:19:01.938Z,82.74
2017-12-10T07:20:04.397Z,82.74
2017-12-10T07:21:06.864Z,82.75
2017-12-10T07:22:09.324Z,82.64
2017-12-10T07:23:11.774Z,82.78
2017-12-10T07:24:14.256Z,82.66
2017-12-10T07:25:16.710Z,82.65
2017-12-10T07:26:19.162Z,82.74
2017-12-10T07:27:21.644Z,82.82
2017-12-10T07:28:24.098Z,82.96
2017-12-10T07:29:26.570Z,82.82
2017-12-10T07:30:29.014Z,82.96
2017-12-10T07:31:31.472Z,82.73
2017-12-10T07:32:33.919Z,83.06
2017-12-10T07:33:36.396Z,83.00
2017-12-10T07:34:38.863Z,83.05
2017-12-10T07:35:41.324Z,82.79
2017-12-10T07:36:43.771Z,83.04
2017-12-10T07:37:46.218Z,83.21
2017-12-10T07:38:48.663Z,83.27
2017-12-10T07:39:51.144Z,83.23
2017-12-10T07:40:53.585Z,83.10
2017-12-10T07:41:56.031Z,83.15
2017-12-10T07:42:58.478Z,82.95
2017-12-10T07:44:00.953Z,82.97
2017-12-10T07:45:03.418Z,82.97
2017-12-10T07:46:05.874Z,83.27
2017-12-10T07:47:08.333Z,83.06
2017-12-10T07:48:10.774Z,83.09
2017-12-10T07:49:13.237Z,83.11
2017-12-10T07:50:15.737Z,82.98
2017-12-10T07:51:18.166Z,82.93
2017-12-10T07:52:20.635Z,82.97
2017-12-10T07:53:23.092Z,83.09
2017-12-10T07:54:25.560Z,82.82
2017-12-10T07:55:28.044Z,82.80
2017-12-10T07:56:30.504Z,82.90
2017-12-10T07:57:32.968Z,83.09
2017-12-10T07:58:35.419Z,83.07
2017-12-10T07:59:37.882Z,83.24
2017-12-10T08:00:40.373Z,83.38
2017-12-10T08:01:42.838Z,83.33
2017-12-10T08:02:45.297Z,83.67
2017-12-10T08:03:47.743Z,83.53
2017-12-10T08:04:50.209Z,83.69
2017-12-10T08:05:52.692Z,83.84
2017-12-10T08:06:55.152Z,83.51
2017-12-10T08:07:57.617Z,83.79
2017-12-10T08:09:00.098Z,83.33
2017-12-10T08:10:02.562Z,83.30
2017-12-10T08:11:05.031Z,83.31
2017-12-10T08:12:07.486Z,83.15
2017-12-10T08:13:09.948Z,83.25
2017-12-10T08:14:12.399Z,83.10
2017-12-10T08:15:15.055Z,83.32
2017-12-10T08:16:17.522Z,83.18
2017-12-10T08:17:20.000Z,83.06
2017-12-10T08:18:22.467Z,83.30
2017-12-10T08:19:24.918Z,83.21
2017-12-10T08:20:27.455Z,83.17
2017-12-10T08:21:29.947Z,83.09
2017-12-10T08:22:32.401Z,83.08
2017-12-10T08:23:34.880Z,83.10
2017-12-10T08:24:37.327Z,83.31
2017-12-10T08:25:39.771Z,83.34
2017-12-10T08:26:42.258Z,83.10
2017-12-10T08:27:44.742Z,82.96
2017-12-10T08:28:47.205Z,82.73
2017-12-10T08:29:49.654Z,83.03
2017-12-10T08:30:52.105Z,82.74
2017-12-10T08:31:54.593Z,82.71
2017-12-10T08:32:57.056Z,83.12
2017-12-10T08:33:59.503Z,82.87
2017-12-10T08:35:01.948Z,82.84
2017-12-10T08:36:04.429Z,82.51
2017-12-10T08:37:06.895Z,82.57
2017-12-10T08:38:09.356Z,82.53
2017-12-10T08:39:11.798Z,82.72
2017-12-10T08:40:14.246Z,82.81
2017-12-10T08:41:16.708Z,82.86
2017-12-10T08:42:19.178Z,82.79
2017-12-10T08:43:21.652Z,82.61
2017-12-10T08:44:24.109Z,82.69
2017-12-10T08:45:26.558Z,82.67
2017-12-10T08:46:29.020Z,83.10
2017-12-10T08:47:31.482Z,83.25
2017-12-10T08:48:33.964Z,83.26
2017-12-10T08:49:36.428Z,82.95
2017-12-10T08:50:38.888Z,82.96
2017-12-10T08:51:41.346Z,82.99
2017-12-10T08:52:43.832Z,82.94
2017-12-10T08:53:46.287Z,82.85
2017-12-10T08:54:48.748Z,82.97
2017-12-10T08:55:51.202Z,83.01
2017-12-10T08:56:53.643Z,82.59
2017-12-10T08:57:56.153Z,82.68
2017-12-10T08:58:58.610Z,82.69
2017-12-10T09:00:01.063Z,82.49
2017-12-10T09:01:03.523Z,82.71
2017-12-10T09:02:06.009Z,82.71
2017-12-10T09:03:08.501Z,82.95
2017-12-10T09:04:10.966Z,82.95
2017-12-10T09:05:13.436Z,82.79
2017-12-10T09:06:15.886Z,82.85
2017-12-10T09:07:18.349Z,82.59
2017-12-10T09:08:20.818Z,82.93
2017-12-10T09:09:23.339Z,82.99
2017-12-10T09:10:25.786Z,82.98
2017-12-10T09:11:28.231Z,82.59
2017-12-10T09:12:30.705Z,82.10
2017-12-10T09:13:33.185Z,82.21
2017-12-10T09:14:35.661Z,82.11
2017-12-10T09:15:38.106Z,82.52
2017-12-10T09:16:40.569Z,82.26
2017-12-10T09:17:43.085Z,82.40
2017-12-10T09:18:45.572Z,82.36
2017-12-10T09:19:48.027Z,82.08
2017-12-10T09:20:50.485Z,81.90
2017-12-10T09:21:52.952Z,81.66
2017-12-10T09:22:55.413Z,81.93
2017-12-10T09:23:57.874Z,82.16
2017-12-10T09:25:00.344Z,81.94
2017-12-10T09:26:02.812Z,81.83
2017-12-10T09:27:05.289Z,82.10
2017-12-10T09:28:07.767Z,82.20
2017-12-10T09:29:10.239Z,81.92
2017-12-10T09:30:12.701Z,81.54
2017-12-10T09:31:15.166Z,81.55
2017-12-10T09:32:17.610Z,81.78
2017-12-10T09:33:20.068Z,81.76
2017-12-10T09:34:22.542Z,82.19
2017-12-10T09:35:24.989Z,81.62
2017-12-10T09:36:27.455Z,81.62
2017-12-10T09:37:29.906Z,81.44
2017-12-10T09:38:32.355Z,80.77
2017-12-10T09:39:34.876Z,81.53
2017-12-10T09:40:37.337Z,81.55
2017-12-10T09:41:39.808Z,81.37
2017-12-10T09:42:42.322Z,81.16
2017-12-10T09:43:44.884Z,81.56
2017-12-10T09:44:47.354Z,81.51
2017-12-10T09:45:49.820Z,81.38
2017-12-10T09:46:52.288Z,81.49
2017-12-10T09:47:54.743Z,80.56
2017-12-10T09:48:57.212Z,80.96
2017-12-10T09:49:59.716Z,81.30
2017-12-10T09:51:02.182Z,81.05
2017-12-10T09:52:04.635Z,81.32
2017-12-10T09:53:07.207Z,81.54
2017-12-10T09:54:09.670Z,81.32
2017-12-10T09:55:12.176Z,81.56
2017-12-10T09:56:14.618Z,81.89
2017-12-10T09:57:17.085Z,81.62
2017-12-10T09:58:19.538Z,81.62
2017-12-10T09:59:21.982Z,81.50
2017-12-10T10:00:24.456Z,82.28
2017-12-10T10:01:26.939Z,82.88
2017-12-10T10:02:29.391Z,83.24
2017-12-10T10:03:31.856Z,83.21
2017-12-10T10:04:34.303Z,84.26
2017-12-10T10:05:36.770Z,84.76
2017-12-10T10:06:39.214Z,85.66
2017-12-10T10:07:41.665Z,86.50
2017-12-10T10:08:44.129Z,86.95
2017-12-10T10:09:46.581Z,87.80
2017-12-10T10:10:49.081Z,88.49
2017-12-10T10:11:51.651Z,89.09
2017-12-10T10:12:54.106Z,89.38
2017-12-10T10:13:56.666Z,90.25
2017-12-10T10:14:59.129Z,90.63
2017-12-10T10:16:01.649Z,91.45
2017-12-10T10:17:04.098Z,91.87
2017-12-10T10:18:06.543Z,91.89
2017-12-10T10:19:09.008Z,92.64
2017-12-10T10:20:11.581Z,92.90
2017-12-10T10:21:14.098Z,93.57
2017-12-10T10:22:16.572Z,93.63
2017-12-10T10:23:19.026Z,93.67
2017-12-10T10:24:21.492Z,93.83
2017-12-10T10:25:23.966Z,93.77
2017-12-10T10:26:26.469Z,93.84
2017-12-10T10:27:28.914Z,93.91
2017-12-10T10:28:31.377Z,94.08
2017-12-10T10:29:33.853Z,94.16
2017-12-10T10:30:36.317Z,94.06
2017-12-10T10:31:38.849Z,94.06
2017-12-10T10:32:41.340Z,94.06
2017-12-10T10:33:43.875Z,93.99
2017-12-10T10:34:46.349Z,94.08
2017-12-10T10:35:48.823Z,94.11
2017-12-10T10:36:51.357Z,94.20
2017-12-10T10:37:53.825Z,94.34
2017-12-10T10:38:56.274Z,94.42
2017-12-10T10:39:58.855Z,94.50
2017-12-10T10:41:01.349Z,94.61
2017-12-10T10:42:03.823Z,94.70
2017-12-10T10:43:06.277Z,94.81
2017-12-10T10:44:09.210Z,94.57
2017-12-10T10:45:11.704Z,94.50
2017-12-10T10:46:14.462Z,94.69
2017-12-10T10:47:17.022Z,94.69
2017-12-10T10:48:19.469Z,94.70
2017-12-10T10:49:22.017Z,94.66
2017-12-10T10:50:24.802Z,94.69
2017-12-10T10:51:27.260Z,94.44
2017-12-10T10:52:29.765Z,94.34
2017-12-10T10:53:32.215Z,94.37
2017-12-10T10:54:34.722Z,94.60
2017-12-10T10:55:37.330Z,94.64
2017-12-10T10:56:39.996Z,94.44
2017-12-10T10:57:42.499Z,94.36
2017-12-10T10:58:44.955Z,94.26
2017-12-10T10:59:48.224Z,94.41
2017-12-10T11:00:51.742Z,94.59
2017-12-10T11:01:54.232Z,94.53
2017-12-10T11:02:56.887Z,94.42
2017-12-10T11:04:00.353Z,94.20
2017-12-10T11:05:02.860Z,94.23
2017-12-10T11:06:05.331Z,94.30
2017-12-10T11:07:07.791Z,94.30
2017-12-10T11:08:10.411Z,94.24
2017-12-10T11:09:12.891Z,94.35
2017-12-10T11:10:15.428Z,94.42
2017-12-10T11:11:18.027Z,94.37
2017-12-10T11:12:20.571Z,94.45
2017-12-10T11:13:23.168Z,94.26
2017-12-10T11:14:25.690Z,94.49
2017-12-10T11:15:28.278Z,94.74
2017-12-10T11:16:30.867Z,95.27
2017-12-10T11:17:33.367Z,95.54
2017-12-10T11:18:35.883Z,95.39
2017-12-10T11:19:38.528Z,95.59
2017-12-10T11:20:41.043Z,95.59
2017-12-10T11:21:43.684Z,95.63
2017-12-10T11:22:47.168Z,95.70
2017-12-10T11:23:49.661Z,95.44
2017-12-10T11:24:52.389Z,95.32
2017-12-10T11:25:55.789Z,95.16
2017-12-10T11:26:58.626Z,95.21
2017-12-10T11:28:01.109Z,95.34
2017-12-10T11:29:03.757Z,95.44
2017-12-10T11:30:06.265Z,95.41
2017-12-10T11:31:08.878Z,95.46
2017-12-10T11:32:11.949Z,95.43
2017-12-10T11:33:14.511Z,95.65
2017-12-10T11:34:17.070Z,95.73
2017-12-10T11:35:19.576Z,95.88
2017-12-10T11:36:22.119Z,95.97
2017-12-10T11:37:24.748Z,95.86
2017-12-10T11:38:27.538Z,95.68
2017-12-10T11:39:30.024Z,95.60
2017-12-10T11:40:32.512Z,95.83
2017-12-10T11:41:35.001Z,95.71
2017-12-10T11:42:37.710Z,95.90
2017-12-10T11:43:40.496Z,95.81
2017-12-10T11:44:43.479Z,95.77
2017-12-10T11:45:45.942Z,95.72
2017-12-10T11:46:48.485Z,95.62
2017-12-10T11:47:50.990Z,95.58
2017-12-10T11:48:53.515Z,95.48
2017-12-10T11:49:56.164Z,95.61
2017-12-10T11:50:59.464Z,95.54
2017-12-10T11:52:03.016Z,95.60
2017-12-10T11:53:06.384Z,95.53
2017-12-10T11:54:10.037Z,95.72
2017-12-10T11:55:12.552Z,95.83
2017-12-10T11:56:15.036Z,95.87
2017-12-10T11:57:17.491Z,95.94
2017-12-10T11:58:20.253Z,96.01
2017-12-10T11:59:22.760Z,96.03
2017-12-10T12:00:25.290Z,96.13
2017-12-10T12:01:27.746Z,96.23
2017-12-10T12:02:30.299Z,96.33
2017-12-10T12:03:33.040Z,96.35
2017-12-10T12:04:35.715Z,96.35
2017-12-10T12:05:39.381Z,96.42
2017-12-10T12:06:41.960Z,96.50
2017-12-10T12:07:44.614Z,96.59
2017-12-10T12:08:47.184Z,96.47
2017-12-10T12:09:49.950Z,96.43
2017-12-10T12:10:52.502Z,96.43
2017-12-10T12:11:54.970Z,96.50
2017-12-10T12:12:57.442Z,96.63
2017-12-10T12:13:59.966Z,96.54
2017-12-10T12:15:02.444Z,96.70
2017-12-10T12:16:05.365Z,96.89
2017-12-10T12:17:07.940Z,97.07
2017-12-10T12:18:12.414Z,97.20
2017-12-10T12:19:15.039Z,97.36
2017-12-10T12:20:17.522Z,97.40
2017-12-10T12:21:20.144Z,97.42
2017-12-10T12:22:22.735Z,97.56
2017-12-10T12:23:25.196Z,97.61
2017-12-10T12:24:27.784Z,97.59
2017-12-10T12:25:31.623Z,97.62
2017-12-10T12:26:34.366Z,97.65
2017-12-10T12:27:37.008Z,97.71
2017-12-10T12:28:40.694Z,97.67
2017-12-10T12:29:44.120Z,97.65
2017-12-10T12:30:46.731Z,97.63
2017-12-10T12:31:50.261Z,97.58
2017-12-10T12:32:54.205Z,97.62
2017-12-10T12:33:56.916Z,97.64
2017-12-10T12:34:59.786Z,97.58
2017-12-10T12:36:02.651Z,97.57
2017-12-10T12:37:06.237Z,97.46
2017-12-10T12:38:08.987Z,97.35
2017-12-10T12:39:12.462Z,97.44
2017-12-10T12:40:15.863Z,97.46
2017-12-10T12:41:18.492Z,97.47
2017-12-10T12:42:21.390Z,97.60
2017-12-10T12:43:24.060Z,97.68
2017-12-10T12:44:26.817Z,97.60
2017-12-10T12:45:30.506Z,97.57
2017-12-10T12:46:33.576Z,97.49
2017-12-10T12:47:37.125Z,97.44
2017-12-10T12:48:39.823Z,97.32
2017-12-10T12:49:44.126Z,97.37
2017-12-10T12:50:46.872Z,97.42
2017-12-10T12:51:51.497Z,97.49
2017-12-10T12:52:54.468Z,97.45
2017-12-10T12:53:57.332Z,97.44
2017-12-10T12:55:00.407Z,97.35
2017-12-10T12:56:03.860Z,97.35
2017-12-10T12:57:07.063Z,97.32
2017-12-10T12:58:09.973Z,97.25
2017-12-10T12:59:13.571Z,97.28
2017-12-10T13:00:16.590Z,97.09
2017-12-10T13:01:19.353Z,97.08
2017-12-10T13:02:22.091Z,97.00
2017-12-10T13:03:25.677Z,96.99
2017-12-10T13:04:28.359Z,97.00
2017-12-10T13:05:31.747Z,97.06
2017-12-10T13:06:34.916Z,97.03
2017-12-10T13:07:37.783Z,97.00
2017-12-10T13:08:41.311Z,97.05
2017-12-10T13:09:44.844Z,96.89
2017-12-10T13:10:47.534Z,96.84
2017-12-10T13:11:50.972Z,96.69
2017-12-10T13:12:53.577Z,96.75
2017-12-10T13:13:56.414Z,96.72
2017-12-10T13:14:59.083Z,96.51
2017-12-10T13:16:02.614Z,96.46
2017-12-10T13:17:06.863Z,96.39
2017-12-10T13:18:09.528Z,96.31
2017-12-10T13:19:12.395Z,96.47
2017-12-10T13:20:15.158Z,96.33
2017-12-10T13:21:17.876Z,96.26
2017-12-10T13:22:21.585Z,96.32
2017-12-10T13:23:25.089Z,96.22
2017-12-10T13:24:28.572Z,96.19
2017-12-10T13:25:31.543Z,96.25
2017-12-10T13:26:34.137Z,96.31